sensor_id;sensor_type;location;lat;lon;timestamp;temperature;humidity
4856;DHT22;2442;48.676;7.986;2023-09-19T01:08:35;16.00;99.90
4856;DHT22;2442;48.676;7.986;2023-09-19T01:40:34;16.00;99.90
4856;DHT22;2442;48.676;7.986;2023-09-19T02:15:06;16.10;99.90
4856;DHT22;2442;48.676;7.986;2023-09-19T02:39:58;16.40;99.90
4856;DHT22;2442;48.676;7.986;2023-09-19T04:18:51;16.60;99.90
4856;DHT22;2442;48.676;7.986;2023-09-19T04:38:32;15.60;99.90
4856;DHT22;2442;48.676;7.986;2023-09-19T04:43:25;15.40;99.90
4856;DHT22;2442;48.676;7.986;2023-09-19T04:50:49;15.60;99.90
4856;DHT22;2442;48.676;7.986;2023-09-19T04:58:11;15.50;99.90
4856;DHT22;2442;48.676;7.986;2023-09-19T05:00:38;15.20;99.90
4856;DHT22;2442;48.676;7.986;2023-09-19T05:05:31;15.50;99.90
4856;DHT22;2442;48.676;7.986;2023-09-19T05:10:30;15.30;99.90
4856;DHT22;2442;48.676;7.986;2023-09-19T05:12:57;15.40;99.90
4856;DHT22;2442;48.676;7.986;2023-09-19T05:15:25;15.40;99.90
4856;DHT22;2442;48.676;7.986;2023-09-19T05:17:52;15.50;99.90
4856;DHT22;2442;48.676;7.986;2023-09-19T05:20:20;15.30;99.90
4856;DHT22;2442;48.676;7.986;2023-09-19T05:22:57;15.30;99.90
4856;DHT22;2442;48.676;7.986;2023-09-19T05:27:55;15.60;99.90
4856;DHT22;2442;48.676;7.986;2023-09-19T07:48:20;18.60;99.90
4856;DHT22;2442;48.676;7.986;2023-09-19T08:03:08;19.40;99.90
4856;DHT22;2442;48.676;7.986;2023-09-19T08:08:10;19.60;99.90
4856;DHT22;2442;48.676;7.986;2023-09-19T08:10:39;19.60;99.90
4856;DHT22;2442;48.676;7.986;2023-09-19T08:13:08;19.60;99.90
4856;DHT22;2442;48.676;7.986;2023-09-19T08:15:37;19.60;99.90
4856;DHT22;2442;48.676;7.986;2023-09-19T08:18:09;19.80;99.90
4856;DHT22;2442;48.676;7.986;2023-09-19T08:20:37;19.80;99.90
4856;DHT22;2442;48.676;7.986;2023-09-19T08:23:04;19.90;99.90
4856;DHT22;2442;48.676;7.986;2023-09-19T08:25:32;19.90;99.90
4856;DHT22;2442;48.676;7.986;2023-09-19T08:27:59;19.90;99.90
4856;DHT22;2442;48.676;7.986;2023-09-19T08:30:33;19.80;99.90
4856;DHT22;2442;48.676;7.986;2023-09-19T08:33:00;19.80;99.90
4856;DHT22;2442;48.676;7.986;2023-09-19T08:35:29;20.10;99.90
4856;DHT22;2442;48.676;7.986;2023-09-19T08:37:56;20.00;99.90
4856;DHT22;2442;48.676;7.986;2023-09-19T08:40:23;20.00;99.90
4856;DHT22;2442;48.676;7.986;2023-09-19T08:42:51;20.20;99.90
4856;DHT22;2442;48.676;7.986;2023-09-19T08:45:19;20.30;99.90
4856;DHT22;2442;48.676;7.986;2023-09-19T08:47:46;20.40;99.90
4856;DHT22;2442;48.676;7.986;2023-09-19T08:50:17;20.40;99.90
4856;DHT22;2442;48.676;7.986;2023-09-19T08:52:45;20.50;99.90
4856;DHT22;2442;48.676;7.986;2023-09-19T08:55:13;20.60;99.90
4856;DHT22;2442;48.676;7.986;2023-09-19T08:57:46;20.90;99.90
4856;DHT22;2442;48.676;7.986;2023-09-19T09:00:16;21.30;99.90
4856;DHT22;2442;48.676;7.986;2023-09-19T09:02:43;21.10;99.90
4856;DHT22;2442;48.676;7.986;2023-09-19T09:05:11;21.20;99.90
4856;DHT22;2442;48.676;7.986;2023-09-19T09:07:38;21.20;99.90
4856;DHT22;2442;48.676;7.986;2023-09-19T09:10:05;21.00;99.90
4856;DHT22;2442;48.676;7.986;2023-09-19T09:12:32;21.20;99.90
4856;DHT22;2442;48.676;7.986;2023-09-19T09:14:59;21.00;99.90
4856;DHT22;2442;48.676;7.986;2023-09-19T09:17:30;21.00;99.90
4856;DHT22;2442;48.676;7.986;2023-09-19T09:19:57;20.90;99.90
4856;DHT22;2442;48.676;7.986;2023-09-19T09:22:24;20.70;99.90
4856;DHT22;2442;48.676;7.986;2023-09-19T09:24:51;20.60;99.90
4856;DHT22;2442;48.676;7.986;2023-09-19T09:27:19;20.60;99.90
4856;DHT22;2442;48.676;7.986;2023-09-19T09:29:46;20.60;99.90
4856;DHT22;2442;48.676;7.986;2023-09-19T09:32:18;20.60;99.90
4856;DHT22;2442;48.676;7.986;2023-09-19T09:34:46;20.90;99.90
4856;DHT22;2442;48.676;7.986;2023-09-19T09:37:14;21.10;99.90
4856;DHT22;2442;48.676;7.986;2023-09-19T09:39:48;21.30;99.90
4856;DHT22;2442;48.676;7.986;2023-09-19T09:42:25;21.50;99.90
4856;DHT22;2442;48.676;7.986;2023-09-19T09:45:07;21.20;99.90
4856;DHT22;2442;48.676;7.986;2023-09-19T09:47:42;20.80;99.90
4856;DHT22;2442;48.676;7.986;2023-09-19T09:50:26;20.40;99.90
4856;DHT22;2442;48.676;7.986;2023-09-19T09:53:02;20.40;99.90
4856;DHT22;2442;48.676;7.986;2023-09-19T09:58:16;20.40;99.90
4856;DHT22;2442;48.676;7.986;2023-09-19T10:00:52;20.20;99.90
4856;DHT22;2442;48.676;7.986;2023-09-19T10:03:21;20.20;99.90
4856;DHT22;2442;48.676;7.986;2023-09-19T10:05:54;20.60;99.90
4856;DHT22;2442;48.676;7.986;2023-09-19T10:08:21;20.90;99.90
4856;DHT22;2442;48.676;7.986;2023-09-19T10:10:47;21.20;99.90
4856;DHT22;2442;48.676;7.986;2023-09-19T10:13:27;21.60;99.90
4856;DHT22;2442;48.676;7.986;2023-09-19T10:15:56;21.70;99.90
4856;DHT22;2442;48.676;7.986;2023-09-19T10:18:26;21.80;99.90
4856;DHT22;2442;48.676;7.986;2023-09-19T10:20:54;21.70;99.90
4856;DHT22;2442;48.676;7.986;2023-09-19T10:23:22;21.70;99.90
4856;DHT22;2442;48.676;7.986;2023-09-19T10:25:50;21.70;99.90
4856;DHT22;2442;48.676;7.986;2023-09-19T10:28:17;21.60;99.90
4856;DHT22;2442;48.676;7.986;2023-09-19T10:30:47;21.40;99.90
4856;DHT22;2442;48.676;7.986;2023-09-19T10:33:16;21.20;99.90
4856;DHT22;2442;48.676;7.986;2023-09-19T10:35:43;21.00;99.90
4856;DHT22;2442;48.676;7.986;2023-09-19T10:38:13;21.20;99.90
4856;DHT22;2442;48.676;7.986;2023-09-19T10:40:39;21.40;99.90
4856;DHT22;2442;48.676;7.986;2023-09-19T10:43:11;21.60;99.90
4856;DHT22;2442;48.676;7.986;2023-09-19T10:45:38;21.90;99.90
4856;DHT22;2442;48.676;7.986;2023-09-19T10:48:05;21.90;99.90
4856;DHT22;2442;48.676;7.986;2023-09-19T10:50:33;21.50;99.90
4856;DHT22;2442;48.676;7.986;2023-09-19T10:53:02;21.10;99.90
4856;DHT22;2442;48.676;7.986;2023-09-19T10:55:33;21.20;99.90
4856;DHT22;2442;48.676;7.986;2023-09-19T10:58:01;21.60;99.90
4856;DHT22;2442;48.676;7.986;2023-09-19T11:00:49;21.80;99.90
4856;DHT22;2442;48.676;7.986;2023-09-19T11:03:17;21.50;99.90
4856;DHT22;2442;48.676;7.986;2023-09-19T11:05:59;21.60;99.90
4856;DHT22;2442;48.676;7.986;2023-09-19T11:08:26;21.70;99.90
4856;DHT22;2442;48.676;7.986;2023-09-19T11:10:54;21.60;99.90
4856;DHT22;2442;48.676;7.986;2023-09-19T11:13:23;21.90;99.90
4856;DHT22;2442;48.676;7.986;2023-09-19T11:18:51;22.10;99.90
4856;DHT22;2442;48.676;7.986;2023-09-19T11:27:08;22.20;99.90
4856;DHT22;2442;48.676;7.986;2023-09-19T11:29:35;22.20;99.90
4856;DHT22;2442;48.676;7.986;2023-09-19T11:32:03;22.20;99.90
4856;DHT22;2442;48.676;7.986;2023-09-19T11:34:37;22.50;99.90
4856;DHT22;2442;48.676;7.986;2023-09-19T11:37:03;22.60;99.90
4856;DHT22;2442;48.676;7.986;2023-09-19T11:40:05;22.40;99.90
4856;DHT22;2442;48.676;7.986;2023-09-19T11:42:42;22.30;99.90
4856;DHT22;2442;48.676;7.986;2023-09-19T11:47:51;23.00;99.90
4856;DHT22;2442;48.676;7.986;2023-09-19T11:50:18;23.10;99.90
4856;DHT22;2442;48.676;7.986;2023-09-19T11:52:46;23.10;99.90
4856;DHT22;2442;48.676;7.986;2023-09-19T11:55:13;23.30;99.90
4856;DHT22;2442;48.676;7.986;2023-09-19T11:57:40;23.50;99.90
4856;DHT22;2442;48.676;7.986;2023-09-19T12:00:10;23.30;99.90
4856;DHT22;2442;48.676;7.986;2023-09-19T12:02:43;23.30;99.90
4856;DHT22;2442;48.676;7.986;2023-09-19T12:05:13;23.50;99.90
4856;DHT22;2442;48.676;7.986;2023-09-19T12:07:43;23.30;99.90
4856;DHT22;2442;48.676;7.986;2023-09-19T12:10:12;22.60;99.90
4856;DHT22;2442;48.676;7.986;2023-09-19T12:12:39;22.60;99.90
4856;DHT22;2442;48.676;7.986;2023-09-19T12:15:09;22.90;99.90
4856;DHT22;2442;48.676;7.986;2023-09-19T12:17:37;22.80;99.90
4856;DHT22;2442;48.676;7.986;2023-09-19T12:20:04;22.90;99.90
4856;DHT22;2442;48.676;7.986;2023-09-19T12:22:40;22.90;99.90
4856;DHT22;2442;48.676;7.986;2023-09-19T12:25:09;23.20;99.90
4856;DHT22;2442;48.676;7.986;2023-09-19T12:27:41;23.60;99.90
4856;DHT22;2442;48.676;7.986;2023-09-19T12:30:10;23.90;99.90
4856;DHT22;2442;48.676;7.986;2023-09-19T12:32:39;24.10;99.90
4856;DHT22;2442;48.676;7.986;2023-09-19T12:35:07;23.90;99.90
4856;DHT22;2442;48.676;7.986;2023-09-19T12:37:36;23.70;99.90
4856;DHT22;2442;48.676;7.986;2023-09-19T12:40:03;23.70;99.90
4856;DHT22;2442;48.676;7.986;2023-09-19T12:42:40;24.10;99.90
4856;DHT22;2442;48.676;7.986;2023-09-19T12:45:07;24.20;99.90
4856;DHT22;2442;48.676;7.986;2023-09-19T12:47:36;24.30;99.90
4856;DHT22;2442;48.676;7.986;2023-09-19T12:50:09;24.20;99.90
4856;DHT22;2442;48.676;7.986;2023-09-19T12:52:44;23.70;99.90
4856;DHT22;2442;48.676;7.986;2023-09-19T12:55:19;23.20;99.90
4856;DHT22;2442;48.676;7.986;2023-09-19T12:57:54;22.80;99.90
4856;DHT22;2442;48.676;7.986;2023-09-19T13:00:21;22.70;99.90
4856;DHT22;2442;48.676;7.986;2023-09-19T13:08:23;23.40;99.90
4856;DHT22;2442;48.676;7.986;2023-09-19T13:11:01;23.60;99.90
4856;DHT22;2442;48.676;7.986;2023-09-19T13:13:28;23.40;99.90
4856;DHT22;2442;48.676;7.986;2023-09-19T13:15:55;23.00;99.90
4856;DHT22;2442;48.676;7.986;2023-09-19T13:18:22;22.80;99.90
4856;DHT22;2442;48.676;7.986;2023-09-19T13:21:05;22.80;99.90
4856;DHT22;2442;48.676;7.986;2023-09-19T13:23:33;22.90;99.90
4856;DHT22;2442;48.676;7.986;2023-09-19T13:25:59;22.90;99.90
4856;DHT22;2442;48.676;7.986;2023-09-19T13:28:26;23.20;99.90
4856;DHT22;2442;48.676;7.986;2023-09-19T13:30:54;23.50;99.90
4856;DHT22;2442;48.676;7.986;2023-09-19T13:33:20;23.70;99.90
4856;DHT22;2442;48.676;7.986;2023-09-19T13:35:47;23.80;99.90
4856;DHT22;2442;48.676;7.986;2023-09-19T13:38:14;23.60;99.90
4856;DHT22;2442;48.676;7.986;2023-09-19T13:40:42;23.70;99.90
4856;DHT22;2442;48.676;7.986;2023-09-19T13:43:08;23.80;99.90
4856;DHT22;2442;48.676;7.986;2023-09-19T13:45:36;24.00;99.90
4856;DHT22;2442;48.676;7.986;2023-09-19T13:48:03;23.80;99.90
4856;DHT22;2442;48.676;7.986;2023-09-19T13:50:30;23.80;99.90
4856;DHT22;2442;48.676;7.986;2023-09-19T13:52:56;23.50;99.90
4856;DHT22;2442;48.676;7.986;2023-09-19T13:55:25;23.30;99.90
4856;DHT22;2442;48.676;7.986;2023-09-19T13:57:53;23.30;99.90
4856;DHT22;2442;48.676;7.986;2023-09-19T14:00:21;23.30;99.90
4856;DHT22;2442;48.676;7.986;2023-09-19T14:02:48;23.20;99.90
4856;DHT22;2442;48.676;7.986;2023-09-19T14:05:16;23.10;99.90
4856;DHT22;2442;48.676;7.986;2023-09-19T14:07:42;23.10;99.90
4856;DHT22;2442;48.676;7.986;2023-09-19T14:10:10;23.30;99.90
4856;DHT22;2442;48.676;7.986;2023-09-19T14:12:36;23.50;99.90
4856;DHT22;2442;48.676;7.986;2023-09-19T14:15:05;23.80;99.90
4856;DHT22;2442;48.676;7.986;2023-09-19T14:17:32;23.90;99.90
4856;DHT22;2442;48.676;7.986;2023-09-19T14:19:59;24.00;99.90
4856;DHT22;2442;48.676;7.986;2023-09-19T14:22:26;24.00;99.90
4856;DHT22;2442;48.676;7.986;2023-09-19T14:24:52;23.70;99.90
4856;DHT22;2442;48.676;7.986;2023-09-19T14:27:20;23.40;99.90
4856;DHT22;2442;48.676;7.986;2023-09-19T14:29:46;23.20;99.90
4856;DHT22;2442;48.676;7.986;2023-09-19T14:32:14;23.10;99.90
4856;DHT22;2442;48.676;7.986;2023-09-19T14:34:41;23.00;99.90
4856;DHT22;2442;48.676;7.986;2023-09-19T14:37:08;23.10;99.90
4856;DHT22;2442;48.676;7.986;2023-09-19T14:39:36;22.90;99.90
4856;DHT22;2442;48.676;7.986;2023-09-19T14:42:04;23.00;99.90
4856;DHT22;2442;48.676;7.986;2023-09-19T14:44:30;23.00;99.90
4856;DHT22;2442;48.676;7.986;2023-09-19T14:46:57;23.20;99.90
4856;DHT22;2442;48.676;7.986;2023-09-19T14:49:25;23.40;99.90
4856;DHT22;2442;48.676;7.986;2023-09-19T14:51:52;23.70;99.90
4856;DHT22;2442;48.676;7.986;2023-09-19T14:54:18;23.80;99.90
4856;DHT22;2442;48.676;7.986;2023-09-19T14:56:46;23.70;99.90
4856;DHT22;2442;48.676;7.986;2023-09-19T14:59:19;23.60;99.90
4856;DHT22;2442;48.676;7.986;2023-09-19T15:01:45;23.40;99.90
4856;DHT22;2442;48.676;7.986;2023-09-19T15:04:12;23.50;99.90
4856;DHT22;2442;48.676;7.986;2023-09-19T15:06:40;23.50;99.90
4856;DHT22;2442;48.676;7.986;2023-09-19T15:09:07;23.50;99.90
4856;DHT22;2442;48.676;7.986;2023-09-19T15:11:35;23.70;99.90
4856;DHT22;2442;48.676;7.986;2023-09-19T15:14:01;23.70;99.90
4856;DHT22;2442;48.676;7.986;2023-09-19T15:16:28;23.50;99.90
4856;DHT22;2442;48.676;7.986;2023-09-19T15:18:55;23.40;99.90
4856;DHT22;2442;48.676;7.986;2023-09-19T15:21:21;23.30;99.90
4856;DHT22;2442;48.676;7.986;2023-09-19T15:23:51;23.20;99.90
4856;DHT22;2442;48.676;7.986;2023-09-19T15:26:17;23.10;99.90
4856;DHT22;2442;48.676;7.986;2023-09-19T15:28:47;23.00;99.90
4856;DHT22;2442;48.676;7.986;2023-09-19T15:31:14;22.90;99.90
4856;DHT22;2442;48.676;7.986;2023-09-19T15:33:41;22.80;99.90
4856;DHT22;2442;48.676;7.986;2023-09-19T15:36:08;22.80;99.90
4856;DHT22;2442;48.676;7.986;2023-09-19T15:41:18;22.80;99.90
4856;DHT22;2442;48.676;7.986;2023-09-19T15:43:46;22.90;99.90
4856;DHT22;2442;48.676;7.986;2023-09-19T15:46:12;22.80;99.90
4856;DHT22;2442;48.676;7.986;2023-09-19T15:48:40;22.80;99.90
4856;DHT22;2442;48.676;7.986;2023-09-19T15:51:07;22.80;99.90
4856;DHT22;2442;48.676;7.986;2023-09-19T15:53:34;22.80;99.90
4856;DHT22;2442;48.676;7.986;2023-09-19T15:56:07;22.80;99.90
4856;DHT22;2442;48.676;7.986;2023-09-19T15:58:36;22.80;99.90
4856;DHT22;2442;48.676;7.986;2023-09-19T16:01:04;22.80;99.90
4856;DHT22;2442;48.676;7.986;2023-09-19T16:03:31;22.80;99.90
4856;DHT22;2442;48.676;7.986;2023-09-19T16:05:58;22.80;99.90
4856;DHT22;2442;48.676;7.986;2023-09-19T16:08:24;22.80;99.90
4856;DHT22;2442;48.676;7.986;2023-09-19T16:10:52;22.80;99.90
4856;DHT22;2442;48.676;7.986;2023-09-19T16:13:19;22.80;99.90
4856;DHT22;2442;48.676;7.986;2023-09-19T16:15:47;22.70;99.90
4856;DHT22;2442;48.676;7.986;2023-09-19T16:18:13;22.60;99.90
4856;DHT22;2442;48.676;7.986;2023-09-19T16:20:40;22.60;99.90
4856;DHT22;2442;48.676;7.986;2023-09-19T16:23:07;22.50;99.90
4856;DHT22;2442;48.676;7.986;2023-09-19T16:25:34;22.30;99.90
4856;DHT22;2442;48.676;7.986;2023-09-19T16:28:00;22.20;99.90
4856;DHT22;2442;48.676;7.986;2023-09-19T16:30:31;22.20;99.90
4856;DHT22;2442;48.676;7.986;2023-09-19T16:32:59;22.10;99.90
4856;DHT22;2442;48.676;7.986;2023-09-19T16:35:25;22.10;99.90
4856;DHT22;2442;48.676;7.986;2023-09-19T16:37:52;22.10;99.90
4856;DHT22;2442;48.676;7.986;2023-09-19T16:40:18;22.20;99.90
4856;DHT22;2442;48.676;7.986;2023-09-19T16:42:45;22.10;99.90
4856;DHT22;2442;48.676;7.986;2023-09-19T16:45:12;22.10;99.90
4856;DHT22;2442;48.676;7.986;2023-09-19T16:47:38;22.10;99.90
4856;DHT22;2442;48.676;7.986;2023-09-19T16:50:07;22.10;99.90
4856;DHT22;2442;48.676;7.986;2023-09-19T16:52:35;22.00;99.90
4856;DHT22;2442;48.676;7.986;2023-09-19T16:55:02;22.00;99.90
4856;DHT22;2442;48.676;7.986;2023-09-19T16:57:29;22.00;99.90
4856;DHT22;2442;48.676;7.986;2023-09-19T16:59:55;21.90;99.90
4856;DHT22;2442;48.676;7.986;2023-09-19T17:02:22;21.80;99.90
4856;DHT22;2442;48.676;7.986;2023-09-19T17:04:49;21.70;99.90
4856;DHT22;2442;48.676;7.986;2023-09-19T17:07:18;21.60;99.90
4856;DHT22;2442;48.676;7.986;2023-09-19T17:09:45;21.60;99.90
4856;DHT22;2442;48.676;7.986;2023-09-19T17:12:12;21.50;99.90
4856;DHT22;2442;48.676;7.986;2023-09-19T17:14:39;21.50;99.90
4856;DHT22;2442;48.676;7.986;2023-09-19T20:56:01;14.90;99.90
4856;DHT22;2442;48.676;7.986;2023-09-19T21:10:43;15.30;99.90
4856;DHT22;2442;48.676;7.986;2023-09-19T21:13:11;15.10;99.90
4856;DHT22;2442;48.676;7.986;2023-09-19T21:32:54;14.80;99.90
4856;DHT22;2442;48.676;7.986;2023-09-19T21:42:42;15.00;99.90
4856;DHT22;2442;48.676;7.986;2023-09-19T21:52:31;15.00;99.90
4856;DHT22;2442;48.676;7.986;2023-09-19T22:27:02;14.50;99.90
4856;DHT22;2442;48.676;7.986;2023-09-19T22:44:20;14.70;99.90
4856;DHT22;2442;48.676;7.986;2023-09-19T22:46:48;14.60;99.90
4856;DHT22;2442;48.676;7.986;2023-09-19T22:49:15;14.60;99.90
4856;DHT22;2442;48.676;7.986;2023-09-19T22:51:44;14.50;99.90
4856;DHT22;2442;48.676;7.986;2023-09-19T22:56:50;14.50;99.90
4856;DHT22;2442;48.676;7.986;2023-09-19T22:59:19;14.40;99.90
4856;DHT22;2442;48.676;7.986;2023-09-19T23:14:14;14.60;99.90
4856;DHT22;2442;48.676;7.986;2023-09-19T23:24:19;14.40;99.90
4856;DHT22;2442;48.676;7.986;2023-09-19T23:26:50;14.30;99.90
4856;DHT22;2442;48.676;7.986;2023-09-19T23:29:18;14.30;99.90
4856;DHT22;2442;48.676;7.986;2023-09-19T23:31:45;14.00;99.90
4856;DHT22;2442;48.676;7.986;2023-09-19T23:34:11;14.00;99.90
4856;DHT22;2442;48.676;7.986;2023-09-19T23:36:38;13.90;99.90
4856;DHT22;2442;48.676;7.986;2023-09-19T23:39:05;13.70;99.90
4856;DHT22;2442;48.676;7.986;2023-09-19T23:41:34;13.60;99.90
4856;DHT22;2442;48.676;7.986;2023-09-19T23:51:33;13.70;99.90
4856;DHT22;2442;48.676;7.986;2023-09-19T23:54:01;13.80;99.90
4856;DHT22;2442;48.676;7.986;2023-09-19T23:56:29;13.80;99.90
4856;DHT22;2442;48.676;7.986;2023-09-19T23:58:58;13.80;99.90
